createdAt,value
2019-01-18T00:00:54.184Z,58.37
2019-01-18T00:03:23.847Z,58.20
2019-01-18T00:05:53.226Z,58.50
2019-01-18T00:08:22.773Z,58.92
2019-01-18T00:10:52.315Z,58.73
2019-01-18T00:13:21.988Z,58.17
2019-01-18T00:15:51.521Z,57.84
2019-01-18T00:18:21.076Z,57.52
2019-01-18T00:20:50.657Z,56.91
2019-01-18T00:23:20.211Z,56.85
2019-01-18T00:25:49.774Z,56.92
2019-01-18T00:28:19.333Z,56.29
2019-01-18T00:30:48.878Z,56.24
2019-01-18T00:33:18.439Z,56.52
2019-01-18T00:35:48.105Z,55.89
2019-01-18T00:38:17.677Z,56.10
2019-01-18T00:40:47.237Z,56.44
2019-01-18T00:43:16.793Z,55.96
2019-01-18T00:45:46.314Z,56.15
2019-01-18T00:48:15.836Z,56.24
2019-01-18T00:50:45.389Z,56.24
2019-01-18T00:53:17.988Z,56.05
2019-01-18T00:55:47.571Z,56.39
2019-01-18T00:58:17.154Z,56.83
2019-01-18T01:00:46.740Z,57.11
2019-01-18T01:03:16.327Z,57.26
2019-01-18T01:05:45.912Z,57.20
2019-01-18T01:08:15.517Z,56.95
2019-01-18T01:10:45.110Z,57.16
2019-01-18T01:13:14.693Z,56.80
2019-01-18T01:15:44.330Z,56.46
2019-01-18T01:18:13.866Z,56.36
2019-01-18T01:20:43.523Z,56.87
2019-01-18T01:23:13.072Z,57.02
2019-01-18T01:25:42.755Z,56.99
2019-01-18T01:28:12.429Z,57.26
2019-01-18T01:30:42.076Z,57.26
2019-01-18T01:33:11.643Z,56.84
2019-01-18T01:35:41.224Z,56.93
2019-01-18T01:38:10.725Z,56.63
2019-01-18T01:40:40.406Z,56.20
2019-01-18T01:43:10.069Z,56.36
2019-01-18T01:45:39.655Z,56.28
2019-01-18T01:48:09.176Z,56.19
2019-01-18T01:50:38.685Z,55.87
2019-01-18T01:53:08.241Z,56.04
2019-01-18T01:55:37.793Z,56.21
2019-01-18T01:58:07.384Z,56.44
2019-01-18T02:00:36.965Z,56.17
2019-01-18T02:03:06.564Z,56.73
2019-01-18T02:05:36.007Z,57.01
2019-01-18T02:08:05.555Z,57.65
2019-01-18T02:10:35.134Z,58.71
2019-01-18T02:13:04.662Z,59.27
2019-01-18T02:15:34.277Z,59.57
2019-01-18T02:18:03.915Z,59.64
2019-01-18T02:20:34.466Z,59.38
2019-01-18T02:23:04.178Z,59.18
2019-01-18T02:25:33.706Z,58.84
2019-01-18T02:28:03.277Z,58.70
2019-01-18T02:30:32.823Z,58.98
2019-01-18T02:33:02.480Z,59.00
2019-01-18T02:35:31.966Z,59.27
2019-01-18T02:38:01.690Z,59.19
2019-01-18T02:40:31.226Z,59.65
2019-01-18T02:43:00.825Z,60.36
2019-01-18T02:45:30.343Z,60.89
2019-01-18T02:47:59.924Z,61.20
2019-01-18T02:50:29.481Z,61.70
2019-01-18T02:52:59.027Z,61.77
2019-01-18T02:55:29.179Z,61.98
2019-01-18T02:57:58.766Z,62.17
2019-01-18T03:00:28.197Z,62.38
2019-01-18T03:02:57.726Z,62.35
2019-01-18T03:05:27.988Z,62.20
2019-01-18T03:07:57.534Z,61.73
2019-01-18T03:10:28.873Z,62.62
2019-01-18T03:12:58.443Z,62.81
2019-01-18T03:15:28.099Z,63.11
2019-01-18T03:17:57.742Z,63.27
2019-01-18T03:20:27.172Z,63.23
2019-01-18T03:22:56.633Z,64.00
2019-01-18T03:25:29.964Z,63.78
2019-01-18T03:27:59.425Z,64.11
2019-01-18T03:30:29.002Z,64.14
2019-01-18T03:32:58.532Z,63.89
2019-01-18T03:35:28.125Z,62.88
2019-01-18T03:37:57.657Z,63.24
2019-01-18T03:40:27.220Z,63.33
2019-01-18T03:42:56.756Z,64.05
2019-01-18T03:45:26.292Z,63.38
2019-01-18T03:47:55.964Z,63.44
2019-01-18T03:50:27.102Z,63.08
2019-01-18T03:52:56.794Z,63.34
2019-01-18T03:55:26.266Z,63.12
2019-01-18T03:57:55.845Z,64.36
2019-01-18T04:00:27.373Z,65.82
2019-01-18T04:02:56.993Z,66.28
2019-01-18T04:05:26.587Z,66.67
2019-01-18T04:07:56.206Z,67.17
2019-01-18T04:10:25.783Z,68.51
2019-01-18T04:12:55.346Z,70.30
2019-01-18T04:15:24.966Z,72.95
2019-01-18T04:17:54.459Z,73.70
2019-01-18T04:20:24.010Z,73.17
2019-01-18T04:22:53.439Z,73.57
2019-01-18T04:25:26.625Z,72.98
2019-01-18T04:27:56.185Z,72.21
2019-01-18T04:30:32.965Z,71.94
2019-01-18T04:32:57.121Z,71.44
2019-01-18T04:35:26.578Z,71.08
2019-01-18T04:37:56.135Z,70.96
2019-01-18T04:40:26.866Z,70.90
2019-01-18T04:42:56.445Z,71.17
2019-01-18T04:45:26.028Z,70.48
2019-01-18T04:47:55.562Z,70.79
2019-01-18T04:50:26.467Z,71.09
2019-01-18T04:52:56.026Z,70.94
2019-01-18T04:55:25.611Z,70.31
2019-01-18T04:57:55.148Z,69.55
2019-01-18T05:00:26.577Z,70.35
2019-01-18T05:02:56.115Z,70.70
2019-01-18T05:05:25.759Z,70.09
2019-01-18T05:07:55.305Z,70.17
2019-01-18T05:10:26.121Z,69.95
2019-01-18T05:12:55.664Z,68.50
2019-01-18T05:15:27.274Z,68.50
2019-01-18T05:17:56.871Z,67.41
2019-01-18T05:20:26.398Z,67.34
2019-01-18T05:22:55.937Z,66.13
2019-01-18T05:25:25.437Z,65.53
2019-01-18T05:27:55.024Z,64.86
2019-01-18T05:30:26.401Z,64.78
2019-01-18T05:32:55.947Z,65.16
2019-01-18T05:35:25.474Z,65.88
2019-01-18T05:37:54.982Z,66.58
2019-01-18T05:40:24.529Z,66.17
2019-01-18T05:42:54.066Z,68.21
2019-01-18T05:45:23.599Z,69.01
2019-01-18T05:47:53.221Z,70.47
2019-01-18T05:50:27.629Z,71.15
2019-01-18T05:52:57.386Z,70.66
2019-01-18T05:55:26.872Z,68.95
2019-01-18T05:57:56.394Z,65.98
2019-01-18T06:00:36.918Z,64.52
2019-01-18T06:03:06.827Z,64.60
2019-01-18T06:05:38.686Z,64.66
2019-01-18T06:08:08.254Z,64.20
2019-01-18T06:10:37.771Z,63.30
2019-01-18T06:13:07.503Z,64.40
2019-01-18T06:15:37.053Z,64.75
2019-01-18T06:18:06.625Z,65.21
2019-01-18T06:20:36.158Z,64.52
2019-01-18T06:23:05.675Z,64.87
2019-01-18T06:25:35.362Z,64.77
2019-01-18T06:28:04.976Z,63.72
2019-01-18T06:30:34.633Z,64.76
2019-01-18T06:33:04.385Z,64.26
2019-01-18T06:35:33.856Z,63.61
2019-01-18T06:38:03.403Z,62.25
2019-01-18T06:40:32.925Z,63.67
2019-01-18T06:43:02.455Z,65.61
2019-01-18T06:45:32.419Z,64.71
2019-01-18T06:48:02.036Z,65.11
2019-01-18T06:50:31.701Z,65.06
2019-01-18T06:53:01.481Z,64.88
2019-01-18T06:55:31.143Z,64.00
2019-01-18T06:58:00.771Z,64.57
2019-01-18T07:00:32.434Z,64.73
2019-01-18T07:03:02.057Z,64.88
2019-01-18T07:05:31.727Z,64.37
2019-01-18T07:08:01.345Z,64.16
2019-01-18T07:10:31.037Z,63.79
2019-01-18T07:13:00.794Z,63.89
2019-01-18T07:15:30.411Z,63.38
2019-01-18T07:18:00.196Z,63.37
2019-01-18T07:20:29.777Z,63.30
2019-01-18T07:22:59.528Z,62.57
2019-01-18T07:25:32.730Z,63.30
2019-01-18T07:28:02.536Z,63.07
2019-01-18T07:30:34.789Z,62.40
2019-01-18T07:33:05.220Z,62.46
2019-01-18T07:35:34.793Z,62.06
2019-01-18T07:38:04.333Z,62.05
2019-01-18T07:40:33.954Z,61.35
2019-01-18T07:43:03.702Z,61.06
2019-01-18T07:45:33.480Z,60.26
2019-01-18T07:48:03.179Z,60.11
2019-01-18T07:50:32.802Z,60.14
2019-01-18T07:53:02.352Z,59.65
2019-01-18T07:55:32.194Z,58.78
2019-01-18T07:58:01.998Z,58.87
2019-01-18T08:00:31.916Z,59.43
2019-01-18T08:03:01.615Z,58.91
2019-01-18T08:05:33.614Z,59.64
2019-01-18T08:08:03.534Z,59.10
2019-01-18T08:10:33.957Z,59.54
2019-01-18T08:13:03.572Z,63.36
2019-01-18T08:15:33.481Z,68.16
2019-01-18T08:18:03.138Z,69.96
2019-01-18T08:20:32.788Z,69.99
2019-01-18T08:23:02.982Z,68.78
2019-01-18T08:25:32.712Z,66.67
2019-01-18T08:28:03.035Z,63.72
2019-01-18T08:30:32.750Z,61.64
2019-01-18T08:33:02.521Z,59.78
2019-01-18T08:35:32.675Z,57.62
2019-01-18T08:38:02.557Z,55.14
2019-01-18T08:40:34.783Z,54.24
2019-01-18T08:43:04.980Z,54.09
2019-01-18T08:45:37.659Z,53.22
2019-01-18T08:48:07.833Z,52.65
2019-01-18T08:50:37.613Z,51.48
2019-01-18T08:53:07.240Z,51.49
2019-01-18T08:55:36.954Z,49.60
2019-01-18T08:58:06.748Z,49.11
2019-01-18T09:00:36.441Z,50.23
2019-01-18T09:03:05.960Z,48.97
2019-01-18T09:05:35.533Z,50.36
2019-01-18T09:08:05.065Z,47.98
2019-01-18T09:10:34.613Z,48.76
2019-01-18T09:13:04.165Z,46.27
2019-01-18T09:15:33.732Z,46.47
2019-01-18T09:18:03.300Z,46.34
2019-01-18T09:20:32.856Z,46.16
2019-01-18T09:23:02.489Z,44.29
2019-01-18T09:25:32.069Z,45.60
2019-01-18T09:28:01.519Z,43.76
2019-01-18T09:30:33.663Z,43.83
2019-01-18T09:33:04.589Z,40.93
2019-01-18T09:35:34.553Z,40.93
2019-01-18T09:38:04.459Z,41.63
2019-01-18T09:40:34.266Z,40.86
2019-01-18T09:43:03.624Z,42.70
2019-01-18T09:45:33.148Z,41.72
2019-01-18T09:48:02.706Z,39.26
2019-01-18T09:50:33.127Z,39.26
2019-01-18T09:53:02.979Z,39.99
2019-01-18T09:55:32.443Z,39.02
2019-01-18T09:58:02.135Z,38.09
2019-01-18T10:00:36.354Z,37.90
2019-01-18T10:03:05.931Z,38.63
2019-01-18T10:05:35.466Z,39.27
2019-01-18T10:08:06.897Z,39.54
2019-01-18T10:10:36.463Z,39.52
2019-01-18T10:13:06.060Z,39.52
2019-01-18T10:15:38.171Z,40.79
2019-01-18T10:18:07.985Z,40.44
2019-01-18T10:20:37.522Z,40.52
2019-01-18T10:23:07.078Z,40.52
2019-01-18T10:25:36.645Z,41.16
2019-01-18T10:28:06.181Z,39.17
2019-01-18T10:30:35.714Z,36.92
2019-01-18T10:33:05.295Z,37.80
2019-01-18T10:35:53.911Z,37.26
2019-01-18T10:38:23.334Z,37.88
2019-01-18T10:40:53.126Z,37.22
2019-01-18T10:43:22.920Z,36.37
2019-01-18T10:45:52.458Z,36.43
2019-01-18T10:48:22.109Z,36.66
2019-01-18T10:50:51.726Z,38.46
2019-01-18T10:53:21.302Z,39.62
2019-01-18T10:55:50.945Z,38.58
2019-01-18T10:58:20.643Z,38.08
2019-01-18T11:00:50.223Z,38.51
2019-01-18T11:03:19.956Z,38.90
2019-01-18T11:05:49.717Z,38.15
2019-01-18T11:08:19.492Z,37.66
2019-01-18T11:10:49.428Z,39.41
2019-01-18T11:13:19.120Z,38.21
2019-01-18T11:15:48.876Z,40.28
2019-01-18T11:18:18.414Z,41.58
2019-01-18T11:21:08.237Z,41.09
2019-01-18T11:23:37.830Z,41.21
2019-01-18T11:26:07.473Z,40.06
2019-01-18T11:28:37.004Z,40.57
2019-01-18T11:31:06.581Z,39.94
2019-01-18T11:33:36.304Z,40.35
2019-01-18T11:36:08.261Z,40.46
2019-01-18T11:38:38.343Z,42.17
2019-01-18T11:41:07.977Z,44.65
2019-01-18T11:43:37.733Z,44.33
2019-01-18T11:46:07.470Z,44.01
2019-01-18T11:48:37.595Z,44.37
2019-01-18T11:51:07.433Z,43.70
2019-01-18T11:53:37.312Z,43.33
2019-01-18T11:56:06.955Z,43.46
2019-01-18T11:58:36.841Z,42.47
2019-01-18T12:01:06.906Z,44.89
2019-01-18T12:03:36.706Z,51.03
2019-01-18T12:06:06.684Z,51.03
2019-01-18T12:08:36.642Z,51.06
2019-01-18T12:11:06.318Z,51.40
2019-01-18T12:13:35.991Z,50.12
2019-01-18T12:16:05.726Z,50.12
2019-01-18T12:18:35.482Z,51.72
2019-01-18T12:21:05.148Z,50.76
2019-01-18T12:23:34.903Z,50.25
2019-01-18T12:26:04.620Z,49.86
2019-01-18T12:28:34.237Z,49.86
2019-01-18T12:31:03.864Z,48.56
2019-01-18T12:33:33.435Z,47.09
2019-01-18T12:36:03.072Z,44.89
2019-01-18T12:38:32.746Z,44.49
2019-01-18T12:41:02.516Z,44.78
2019-01-18T12:43:32.170Z,44.78
2019-01-18T12:46:01.913Z,43.24
2019-01-18T12:48:31.575Z,40.80
2019-01-18T12:51:01.345Z,38.87
2019-01-18T12:53:31.016Z,38.34
2019-01-18T12:56:00.680Z,38.34
2019-01-18T12:58:30.325Z,38.42
2019-01-18T13:00:59.980Z,38.14
2019-01-18T13:03:29.741Z,35.73
2019-01-18T13:05:59.412Z,38.00
2019-01-18T13:08:29.041Z,37.32
2019-01-18T13:10:58.720Z,34.71
2019-01-18T13:13:28.386Z,35.25
2019-01-18T13:16:27.855Z,36.09
2019-01-18T13:19:00.375Z,36.32
2019-01-18T13:21:30.012Z,34.14
2019-01-18T13:23:59.592Z,35.61
2019-01-18T13:26:29.259Z,40.43
2019-01-18T13:28:58.791Z,39.67
2019-01-18T13:31:28.562Z,38.41
2019-01-18T13:33:58.218Z,37.51
2019-01-18T13:36:28.775Z,35.78
2019-01-18T13:38:58.355Z,35.79
2019-01-18T13:41:28.210Z,34.38
2019-01-18T13:43:57.859Z,33.30
2019-01-18T13:46:27.638Z,36.53
2019-01-18T13:48:57.388Z,38.80
2019-01-18T13:51:27.050Z,40.54
2019-01-18T13:53:56.797Z,42.41
2019-01-18T13:56:26.598Z,42.61
2019-01-18T13:58:56.234Z,43.40
2019-01-18T14:01:26.086Z,42.36
2019-01-18T14:03:55.649Z,41.40
2019-01-18T14:06:25.291Z,40.80
2019-01-18T14:08:55.900Z,40.30
2019-01-18T14:11:25.650Z,40.21
2019-01-18T14:13:55.418Z,38.80
2019-01-18T14:16:25.178Z,40.16
2019-01-18T14:18:54.924Z,39.79
2019-01-18T14:21:24.589Z,39.19
2019-01-18T14:23:54.253Z,42.70
2019-01-18T14:26:23.866Z,43.73
2019-01-18T14:28:53.495Z,42.93
2019-01-18T14:31:23.098Z,40.94
2019-01-18T14:33:52.742Z,40.55
2019-01-18T14:36:22.393Z,42.23
2019-01-18T14:38:52.087Z,43.08
2019-01-18T14:41:21.859Z,44.37
2019-01-18T14:43:51.547Z,44.72
2019-01-18T14:46:21.117Z,45.08
2019-01-18T14:48:50.898Z,45.49
2019-01-18T14:51:20.477Z,44.67
2019-01-18T14:53:50.103Z,44.86
2019-01-18T14:56:19.851Z,45.15
2019-01-18T14:58:49.540Z,44.62
2019-01-18T15:01:19.171Z,44.75
2019-01-18T15:03:48.856Z,43.69
2019-01-18T15:06:18.632Z,43.35
2019-01-18T15:08:48.327Z,40.96
2019-01-18T15:11:17.927Z,39.95
2019-01-18T15:13:47.610Z,39.86
2019-01-18T15:16:17.256Z,41.70
2019-01-18T15:18:46.999Z,44.50
2019-01-18T15:21:16.614Z,44.83
2019-01-18T15:23:46.231Z,45.30
2019-01-18T15:26:18.507Z,46.03
2019-01-18T15:28:47.305Z,47.26
2019-01-18T15:31:17.016Z,46.62
2019-01-18T15:33:46.694Z,46.34
2019-01-18T15:36:16.237Z,46.97
2019-01-18T15:38:45.905Z,48.07
2019-01-18T15:41:15.465Z,48.01
2019-01-18T15:43:45.122Z,46.89
2019-01-18T15:46:14.777Z,46.89
2019-01-18T15:48:44.476Z,45.75
2019-01-18T15:51:14.113Z,46.85
2019-01-18T15:53:43.919Z,46.68
2019-01-18T15:56:13.587Z,45.44
2019-01-18T15:58:43.239Z,45.51
2019-01-18T16:01:12.870Z,45.11
2019-01-18T16:03:42.559Z,45.45
2019-01-18T16:06:12.192Z,46.11
2019-01-18T16:08:41.790Z,46.11
2019-01-18T16:11:11.525Z,46.45
2019-01-18T16:13:41.208Z,46.86
2019-01-18T16:16:22.016Z,46.86
2019-01-18T16:18:51.759Z,47.65
2019-01-18T16:21:21.432Z,47.65
2019-01-18T16:23:51.126Z,48.84
2019-01-18T16:26:20.745Z,48.84
2019-01-18T16:28:50.418Z,49.43
2019-01-18T16:31:20.059Z,50.30
2019-01-18T16:33:49.740Z,51.01
2019-01-18T16:36:19.205Z,51.01
2019-01-18T16:38:48.835Z,51.17
2019-01-18T16:41:18.477Z,50.53
2019-01-18T16:43:47.929Z,49.83
2019-01-18T16:46:17.625Z,49.77
2019-01-18T16:48:47.451Z,49.77
2019-01-18T16:51:17.128Z,50.06
2019-01-18T16:53:46.691Z,50.06
2019-01-18T16:56:16.251Z,49.85
2019-01-18T16:58:45.917Z,50.73
2019-01-18T17:01:15.568Z,50.73
2019-01-18T17:03:45.366Z,49.83
2019-01-18T17:06:15.025Z,50.24
2019-01-18T17:08:44.657Z,50.24
2019-01-18T17:11:14.407Z,50.86
2019-01-18T17:13:44.057Z,51.56
2019-01-18T17:16:13.734Z,51.32
2019-01-18T17:18:43.876Z,52.27
2019-01-18T17:21:13.654Z,51.85
2019-01-18T17:23:43.025Z,51.85
2019-01-18T17:26:12.415Z,51.45
2019-01-18T17:28:41.900Z,52.10
2019-01-18T17:31:11.723Z,51.40
2019-01-18T17:33:41.335Z,51.75
2019-01-18T17:36:19.298Z,51.48
2019-01-18T17:39:16.684Z,51.28
2019-01-18T17:42:29.350Z,50.92
2019-01-18T17:45:36.651Z,51.72
2019-01-18T17:48:21.327Z,51.95
2019-01-18T17:51:22.835Z,51.95
2019-01-18T17:54:38.899Z,51.81
2019-01-18T17:58:04.650Z,51.57
2019-01-18T18:00:41.452Z,52.00
2019-01-18T18:04:13.309Z,52.37
2019-01-18T18:07:26.466Z,51.97
2019-01-18T18:10:17.196Z,52.01
2019-01-18T18:13:01.103Z,51.76
2019-01-18T18:16:26.163Z,51.75
2019-01-18T18:19:33.748Z,51.70
2019-01-18T18:22:32.229Z,50.73
2019-01-18T18:25:32.191Z,52.10
2019-01-18T18:28:15.076Z,52.42
2019-01-18T18:30:59.038Z,52.57
2019-01-18T18:34:21.661Z,52.00
2019-01-18T18:37:37.043Z,52.43
2019-01-18T18:40:37.472Z,52.84
2019-01-18T18:43:45.174Z,53.06
2019-01-18T18:47:01.786Z,52.93
2019-01-18T18:50:09.169Z,52.62
2019-01-18T18:53:26.912Z,53.39
2019-01-18T18:56:40.792Z,53.08
2019-01-18T18:59:51.138Z,53.26
2019-01-18T19:02:47.687Z,53.57
2019-01-18T19:05:38.029Z,53.49
2019-01-18T19:08:45.466Z,53.73
2019-01-18T19:11:54.517Z,53.67
2019-01-18T19:14:53.991Z,54.13
2019-01-18T19:17:53.092Z,54.25
2019-01-18T19:21:03.659Z,54.26
2019-01-18T19:24:02.265Z,54.52
2019-01-18T19:27:07.387Z,54.84
2019-01-18T19:30:15.405Z,55.02
2019-01-18T19:33:37.967Z,54.62
2019-01-18T19:36:53.441Z,54.46
2019-01-18T19:40:04.382Z,54.63
2019-01-18T19:43:23.716Z,54.89
2019-01-18T19:46:22.358Z,54.78
2019-01-18T19:49:38.479Z,55.67
2019-01-18T19:52:52.820Z,56.07
2019-01-18T19:55:59.780Z,56.11
2019-01-18T19:59:06.481Z,56.30
2019-01-18T20:01:56.760Z,56.04
2019-01-18T20:04:59.050Z,55.55
2019-01-18T20:07:57.637Z,55.37
2019-01-18T20:11:01.240Z,54.82
2019-01-18T20:14:00.351Z,54.77
2019-01-18T20:17:09.904Z,53.83
2019-01-18T20:20:28.031Z,54.41
2019-01-18T20:23:33.375Z,55.07
2019-01-18T20:26:34.521Z,55.35
2019-01-18T20:29:46.727Z,55.69
2019-01-18T20:32:34.562Z,56.02
2019-01-18T20:35:40.865Z,55.49
2019-01-18T20:38:58.386Z,55.74
2019-01-18T20:42:07.808Z,56.05
2019-01-18T20:45:19.507Z,56.00
2019-01-18T20:48:33.752Z,55.68
2019-01-18T20:51:41.356Z,55.99
2019-01-18T20:54:32.778Z,55.56
2019-01-18T20:57:29.257Z,55.70
2019-01-18T21:00:44.303Z,55.78
2019-01-18T21:03:53.122Z,55.71
2019-01-18T21:06:38.925Z,55.61
2019-01-18T21:10:01.670Z,55.63
2019-01-18T21:13:27.781Z,55.54
2019-01-18T21:16:33.953Z,55.33
2019-01-18T21:19:46.906Z,55.40
2019-01-18T21:22:57.887Z,55.44
2019-01-18T21:26:00.972Z,55.30
2019-01-18T21:28:53.339Z,55.22
2019-01-18T21:31:55.255Z,55.31
2019-01-18T21:34:37.450Z,55.29
2019-01-18T21:37:50.079Z,55.19
2019-01-18T21:41:06.280Z,55.14
2019-01-18T21:44:24.516Z,55.07
2019-01-18T21:47:30.763Z,55.18
2019-01-18T21:50:30.914Z,55.06
2019-01-18T21:53:26.727Z,55.24
2019-01-18T21:56:28.758Z,55.21
2019-01-18T21:59:54.647Z,55.31
2019-01-18T22:03:26.075Z,55.38
2019-01-18T22:06:29.555Z,55.58
2019-01-18T22:09:20.657Z,55.54
2019-01-18T22:12:39.334Z,55.02
2019-01-18T22:15:30.792Z,55.19
2019-01-18T22:18:13.426Z,55.19
2019-01-18T22:21:30.163Z,55.40
2019-01-18T22:24:40.380Z,55.21
2019-01-18T22:27:56.661Z,55.54
2019-01-18T22:31:05.189Z,55.03
2019-01-18T22:33:59.057Z,55.31
2019-01-18T22:37:15.870Z,54.91
2019-01-18T22:40:41.184Z,55.39
2019-01-18T22:43:43.050Z,55.02
2019-01-18T22:46:49.519Z,55.46
2019-01-18T22:49:44.328Z,55.34
2019-01-18T22:52:51.102Z,55.30
2019-01-18T22:56:17.045Z,55.26
2019-01-18T22:59:12.131Z,55.33
2019-01-18T23:02:13.500Z,55.12
2019-01-18T23:04:59.478Z,55.46
2019-01-18T23:08:14.040Z,55.42
2019-01-18T23:11:11.776Z,55.33
2019-01-18T23:14:18.174Z,55.28
2019-01-18T23:17:25.875Z,55.25
2019-01-18T23:20:49.148Z,55.50
2019-01-18T23:23:42.610Z,55.52
2019-01-18T23:26:42.766Z,55.65
2019-01-18T23:29:45.215Z,55.67
2019-01-18T23:32:54.958Z,55.43
2019-01-18T23:36:14.656Z,55.36
2019-01-18T23:39:33.208Z,55.33
2019-01-18T23:42:52.000Z,55.16
2019-01-18T23:45:56.281Z,55.14
2019-01-18T23:49:10.437Z,55.18
2019-01-18T23:52:26.333Z,55.36
2019-01-18T23:55:37.505Z,55.20
2019-01-18T23:58:49.918Z,55.10
